Time;durP1;ratioP1;P1;durP2;ratioP2;P2;SDS_P1;SDS_P2;PMS_P1;PMS_P2;Temp;Humidity;BMP_temperature;BMP_pressure;BME280_temperature;BME280_humidity;BME280_pressure;Samples;Min_cycle;Max_cycle;Signal;HPM_P1;HPM_P2
2023/09/01 00:00:45;;;;;;;33.27;31.80;;;17.50;99.90;;;;;;5113035;28;20222;-64
2023/09/01 00:03:12;;;;;;;19.83;19.13;;;17.40;99.90;;;;;;5112727;28;20667;-64
2023/09/01 00:05:39;;;;;;;18.23;17.63;;;17.50;99.90;;;;;;5113144;28;20603;-65
2023/09/01 00:08:06;;;;;;;16.87;16.27;;;17.40;99.90;;;;;;5113080;28;20208;-63
2023/09/01 00:10:35;;;;;;;21.60;20.83;;;17.40;99.90;;;;;;5112947;28;20224;-64
2023/09/01 00:13:02;;;;;;;18.53;17.83;;;17.40;99.90;;;;;;5112895;28;20201;-64
2023/09/01 00:15:31;;;;;;;18.80;18.00;;;17.40;99.90;;;;;;5113280;28;20194;-65
2023/09/01 00:17:58;;;;;;;17.13;16.50;;;17.40;99.90;;;;;;5113750;28;20213;-64
2023/09/01 00:20:25;;;;;;;18.33;17.70;;;17.50;99.90;;;;;;5113352;28;20313;-63
2023/09/01 00:22:52;;;;;;;20.47;19.73;;;17.50;99.90;;;;;;5112731;28;20236;-65
2023/09/01 00:25:19;;;;;;;19.00;18.33;;;17.50;99.90;;;;;;5113074;28;20225;-65
2023/09/01 00:27:45;;;;;;;19.13;18.48;;;17.50;99.90;;;;;;5113141;28;20691;-64
2023/09/01 00:30:13;;;;;;;22.00;21.10;;;17.50;99.90;;;;;;5114658;28;20205;-64
2023/09/01 00:32:41;;;;;;;19.37;18.70;;;17.50;99.90;;;;;;5124312;28;20244;-64
2023/09/01 00:35:08;;;;;;;17.02;16.45;;;17.50;99.90;;;;;;5122338;28;20258;-65
2023/09/01 00:37:35;;;;;;;19.00;18.33;;;17.50;99.90;;;;;;5123592;28;20201;-64
2023/09/01 00:40:03;;;;;;;18.87;18.23;;;17.50;99.90;;;;;;5128305;28;20206;-65
2023/09/01 00:42:29;;;;;;;16.88;16.30;;;17.50;99.90;;;;;;5122620;28;20209;-63
2023/09/01 00:44:56;;;;;;;22.83;22.02;;;17.50;99.90;;;;;;5114172;28;20316;-65
2023/09/01 00:47:23;;;;;;;17.45;16.85;;;17.50;99.90;;;;;;5113694;28;20296;-65
2023/09/01 00:49:51;;;;;;;21.50;20.77;;;17.50;99.90;;;;;;5113334;28;20293;-65
2023/09/01 00:52:18;;;;;;;21.37;20.63;;;17.50;99.90;;;;;;5111840;28;20229;-65
2023/09/01 00:54:45;;;;;;;19.80;19.10;;;17.40;99.90;;;;;;5112842;28;20202;-64
2023/09/01 00:57:12;;;;;;;15.57;15.07;;;17.40;99.90;;;;;;5112643;28;20209;-65
2023/09/01 00:59:39;;;;;;;17.67;17.07;;;17.50;99.90;;;;;;5112580;28;20202;-64
2023/09/01 01:02:06;;;;;;;21.00;20.27;;;17.50;99.90;;;;;;5112364;28;20244;-64
2023/09/01 01:04:33;;;;;;;19.43;18.77;;;17.50;99.90;;;;;;5112454;28;20583;-65
2023/09/01 01:07:11;;;;;;;17.70;17.10;;;17.50;99.90;;;;;;5112281;28;20299;-64
2023/09/01 01:09:50;;;;;;;17.33;16.73;;;17.50;99.90;;;;;;5112339;28;20219;-64
2023/09/01 01:12:24;;;;;;;15.47;14.97;;;17.60;99.90;;;;;;5111825;28;20230;-62
2023/09/01 01:14:54;;;;;;;14.03;13.53;;;17.60;99.90;;;;;;5112148;28;20192;-62
2023/09/01 01:17:21;;;;;;;14.53;14.03;;;17.60;99.90;;;;;;5112152;28;20209;-65
2023/09/01 01:19:51;;;;;;;14.25;13.65;;;17.70;99.90;;;;;;5111844;28;20216;-64
2023/09/01 01:22:36;;;;;;;14.57;14.07;;;17.70;99.90;;;;;;5111802;28;20230;-64
2023/09/01 01:25:07;;;;;;;15.70;15.10;;;17.80;99.90;;;;;;5112140;28;20214;-64
2023/09/01 01:27:34;;;;;;;15.17;14.67;;;17.70;99.90;;;;;;5111758;28;20663;-66
2023/09/01 01:30:01;;;;;;;15.37;14.87;;;17.70;99.90;;;;;;5111945;28;20223;-65
2023/09/01 01:32:28;;;;;;;14.43;13.93;;;17.90;99.90;;;;;;5111886;28;20212;-66
2023/09/01 01:35:10;;;;;;;15.40;14.90;;;17.70;99.90;;;;;;5110873;28;20208;-63
2023/09/01 01:37:42;;;;;;;15.13;14.60;;;17.70;99.90;;;;;;5112231;28;20196;-65
2023/09/01 01:40:12;;;;;;;15.43;14.90;;;17.80;99.90;;;;;;5111272;28;20213;-65
2023/09/01 01:42:39;;;;;;;15.73;15.20;;;17.70;99.90;;;;;;5111419;28;20217;-65
2023/09/01 01:45:09;;;;;;;15.37;14.77;;;17.70;99.90;;;;;;5111374;28;20225;-66
2023/09/01 01:47:36;;;;;;;13.80;13.30;;;17.70;99.90;;;;;;5111088;28;20292;-64
2023/09/01 01:50:03;;;;;;;14.87;14.27;;;17.70;99.90;;;;;;5111345;28;20211;-64
2023/09/01 01:52:29;;;;;;;14.50;14.00;;;17.70;99.90;;;;;;5111293;28;20197;-64
2023/09/01 01:54:56;;;;;;;15.23;14.73;;;17.80;99.90;;;;;;5111034;28;20197;-63
2023/09/01 01:57:24;;;;;;;14.43;13.93;;;17.80;99.90;;;;;;5112265;28;20201;-65
2023/09/01 01:59:51;;;;;;;14.87;14.37;;;17.90;99.90;;;;;;5115670;28;20357;-63
2023/09/01 02:02:18;;;;;;;14.33;13.83;;;17.90;99.90;;;;;;5111522;28;20228;-63
2023/09/01 02:04:45;;;;;;;14.88;14.38;;;17.90;99.90;;;;;;5110044;28;20236;-65
2023/09/01 02:07:12;;;;;;;14.63;14.13;;;17.80;99.90;;;;;;5111064;28;20209;-63
2023/09/01 02:09:38;;;;;;;14.77;14.27;;;17.80;99.90;;;;;;5110774;28;20296;-63
2023/09/01 02:12:06;;;;;;;14.23;13.73;;;17.80;99.90;;;;;;5132729;22;20229;-65
2023/09/01 02:14:35;;;;;;;14.80;14.30;;;17.80;99.90;;;;;;5124815;27;20217;-64
2023/09/01 02:17:03;;;;;;;14.47;13.97;;;17.80;99.90;;;;;;5111556;28;20206;-65
2023/09/01 02:19:30;;;;;;;15.40;14.90;;;17.80;99.90;;;;;;5111990;28;20206;-64
2023/09/01 02:21:57;;;;;;;16.10;15.47;;;17.90;99.90;;;;;;5111206;28;20218;-64
2023/09/01 02:24:23;;;;;;;15.37;14.87;;;17.90;99.90;;;;;;5111364;28;20205;-64
2023/09/01 02:26:50;;;;;;;15.20;14.70;;;17.90;99.90;;;;;;5111585;28;20213;-64
2023/09/01 02:29:17;;;;;;;15.93;15.40;;;17.80;99.90;;;;;;5111335;28;20212;-66
2023/09/01 02:31:45;;;;;;;16.00;15.43;;;17.80;99.90;;;;;;5110908;28;20218;-65
2023/09/01 02:34:12;;;;;;;15.33;14.80;;;17.80;99.90;;;;;;5111296;28;20669;-66
2023/09/01 02:36:39;;;;;;;16.55;15.98;;;17.80;99.90;;;;;;5111497;28;20202;-64
2023/09/01 02:39:06;;;;;;;17.27;16.67;;;17.80;99.90;;;;;;5111169;28;20198;-65
2023/09/01 02:41:33;;;;;;;15.52;14.93;;;17.80;99.90;;;;;;5110967;28;20221;-64
2023/09/01 02:44:00;;;;;;;20.80;20.07;;;17.80;99.90;;;;;;5111540;28;20604;-65
2023/09/01 02:46:27;;;;;;;17.52;16.92;;;17.80;99.90;;;;;;5113575;28;20312;-65
2023/09/01 02:48:55;;;;;;;18.53;17.87;;;17.80;99.90;;;;;;5112467;28;20206;-66
2023/09/01 02:51:22;;;;;;;17.17;16.58;;;17.80;99.90;;;;;;5115970;28;20264;-66
2023/09/01 02:53:49;;;;;;;16.50;15.93;;;17.80;99.90;;;;;;5113612;28;20209;-66
2023/09/01 02:56:17;;;;;;;17.48;16.88;;;17.80;99.90;;;;;;5111624;28;20206;-64
2023/09/01 02:58:44;;;;;;;16.90;16.33;;;17.80;99.90;;;;;;5111533;28;20297;-64
2023/09/01 03:01:11;;;;;;;17.20;16.60;;;17.80;99.90;;;;;;5111136;28;20230;-65
2023/09/01 03:03:40;;;;;;;20.27;19.57;;;17.80;99.90;;;;;;5116051;28;20235;-64
2023/09/01 03:06:09;;;;;;;18.47;17.83;;;17.80;99.90;;;;;;5119656;28;20709;-64
2023/09/01 03:08:36;;;;;;;19.80;19.10;;;17.80;99.90;;;;;;5111388;28;20206;-65
2023/09/01 03:11:04;;;;;;;18.30;17.63;;;17.80;99.90;;;;;;5110675;28;20307;-65
2023/09/01 03:13:31;;;;;;;19.07;18.40;;;17.80;99.90;;;;;;5111127;28;20194;-66
2023/09/01 03:15:58;;;;;;;18.60;17.98;;;17.80;99.90;;;;;;5111694;28;20411;-66
2023/09/01 03:18:25;;;;;;;16.47;15.93;;;17.80;99.90;;;;;;5114379;28;20212;-64
2023/09/01 03:20:53;;;;;;;17.47;16.87;;;17.80;99.90;;;;;;5114624;28;20567;-62
2023/09/01 03:23:22;;;;;;;19.47;18.80;;;17.70;99.90;;;;;;5114722;28;20222;-66
2023/09/01 03:25:55;;;;;;;17.17;16.57;;;17.80;99.90;;;;;;5114622;28;20594;-64
2023/09/01 03:28:22;;;;;;;17.50;16.90;;;17.80;99.90;;;;;;5120225;28;20217;-64
2023/09/01 03:30:49;;;;;;;17.30;16.70;;;17.80;99.90;;;;;;5114637;28;20202;-63
2023/09/01 03:33:16;;;;;;;16.73;16.13;;;17.80;99.90;;;;;;5114507;28;20201;-65
2023/09/01 03:35:43;;;;;;;15.40;14.90;;;17.80;99.90;;;;;;5118369;28;20206;-64
2023/09/01 03:38:10;;;;;;;17.23;16.63;;;17.80;99.90;;;;;;5114392;28;20205;-66
2023/09/01 03:40:38;;;;;;;16.17;15.57;;;17.80;99.90;;;;;;5114802;28;20198;-64
2023/09/01 03:43:07;;;;;;;17.02;16.42;;;17.90;99.90;;;;;;5114602;28;20226;-65
2023/09/01 03:45:33;;;;;;;16.40;15.82;;;17.90;99.90;;;;;;5119889;28;20279;-64
2023/09/01 03:48:00;;;;;;;16.40;15.80;;;17.90;99.90;;;;;;5119066;28;20205;-65
2023/09/01 03:50:27;;;;;;;17.10;16.50;;;17.90;99.90;;;;;;5117391;28;20241;-65
2023/09/01 03:52:54;;;;;;;14.85;14.35;;;17.90;99.90;;;;;;5113699;28;20222;-64
2023/09/01 03:55:21;;;;;;;14.53;14.03;;;17.90;99.90;;;;;;5114185;28;20198;-65
2023/09/01 03:57:49;;;;;;;15.33;14.80;;;18.00;99.90;;;;;;5114156;28;20296;-65
2023/09/01 04:00:17;;;;;;;16.53;15.97;;;18.00;99.90;;;;;;5114315;28;20283;-63
2023/09/01 04:02:45;;;;;;;14.75;14.15;;;18.00;99.90;;;;;;5113649;28;20236;-64
2023/09/01 04:05:12;;;;;;;15.37;14.87;;;18.00;99.90;;;;;;5113727;28;20716;-66
2023/09/01 04:07:39;;;;;;;15.30;14.70;;;18.00;99.90;;;;;;5113815;28;20205;-65
2023/09/01 04:10:07;;;;;;;15.93;15.40;;;18.00;99.90;;;;;;5114097;28;20212;-65
2023/09/01 04:12:34;;;;;;;14.40;13.90;;;18.10;99.90;;;;;;5113297;28;20244;-65
2023/09/01 04:15:02;;;;;;;17.35;16.75;;;18.10;99.90;;;;;;5113660;28;20681;-65
2023/09/01 04:17:30;;;;;;;15.87;15.30;;;18.00;99.90;;;;;;5114417;28;20206;-65
2023/09/01 04:19:57;;;;;;;16.60;16.00;;;18.10;99.90;;;;;;5113759;28;20201;-64
2023/09/01 04:22:24;;;;;;;18.73;18.03;;;18.10;99.90;;;;;;5112958;28;20578;-64
2023/09/01 04:24:51;;;;;;;24.17;23.17;;;18.10;99.90;;;;;;5113483;28;20208;-64
2023/09/01 04:27:18;;;;;;;18.10;17.50;;;18.10;99.90;;;;;;5113052;28;20716;-66
2023/09/01 04:29:45;;;;;;;18.93;18.30;;;18.20;99.90;;;;;;5113270;28;20212;-63
2023/09/01 04:32:12;;;;;;;18.97;18.33;;;18.20;99.90;;;;;;5112858;28;20222;-64
2023/09/01 04:34:39;;;;;;;22.42;21.65;;;18.20;99.90;;;;;;5113602;28;20208;-64
2023/09/01 04:37:05;;;;;;;23.77;22.97;;;18.20;99.90;;;;;;5112955;28;20683;-64
2023/09/01 04:39:32;;;;;;;22.53;21.73;;;18.10;99.90;;;;;;5113629;28;20206;-65
2023/09/01 04:41:59;;;;;;;19.90;19.20;;;17.90;99.90;;;;;;5112918;27;20253;-64
2023/09/01 04:44:26;;;;;;;22.27;21.47;;;17.90;99.90;;;;;;5113073;28;20202;-64
2023/09/01 04:46:53;;;;;;;23.23;22.43;;;17.90;99.90;;;;;;5114361;28;20225;-66
2023/09/01 04:49:21;;;;;;;23.97;23.13;;;17.80;99.90;;;;;;5126178;28;20296;-66
2023/09/01 04:51:48;;;;;;;23.93;23.13;;;17.80;99.90;;;;;;5123139;28;20225;-64
2023/09/01 04:54:15;;;;;;;22.53;21.73;;;17.80;99.90;;;;;;5120998;28;20959;-64
2023/09/01 04:56:42;;;;;;;22.80;22.00;;;17.80;99.90;;;;;;5123715;28;20220;-65
2023/09/01 04:59:09;;;;;;;23.77;22.93;;;17.80;99.90;;;;;;5114876;28;20206;-65
2023/09/01 05:01:35;;;;;;;25.00;24.10;;;17.80;99.90;;;;;;5112316;28;20228;-65
2023/09/01 05:04:02;;;;;;;26.93;25.97;;;17.80;99.90;;;;;;5112879;27;20665;-66
2023/09/01 05:06:30;;;;;;;23.23;22.40;;;17.80;99.90;;;;;;5124895;27;20249;-66
2023/09/01 05:08:57;;;;;;;19.90;19.23;;;17.80;99.90;;;;;;5113324;28;20199;-65
2023/09/01 05:11:24;;;;;;;21.27;20.53;;;17.80;99.90;;;;;;5112484;28;20234;-65
2023/09/01 05:13:51;;;;;;;21.43;20.70;;;17.80;99.90;;;;;;5113006;28;20202;-64
2023/09/01 05:16:18;;;;;;;26.13;25.17;;;17.80;99.90;;;;;;5148023;27;20857;-66
2023/09/01 05:18:46;;;;;;;26.10;25.20;;;17.80;99.90;;;;;;5159651;27;20210;-66
2023/09/01 05:21:13;;;;;;;21.73;20.87;;;17.80;99.90;;;;;;5161654;27;20220;-66
2023/09/01 05:23:41;;;;;;;27.80;26.83;;;17.80;99.90;;;;;;5153701;27;20675;-65
2023/09/01 05:26:08;;;;;;;23.80;23.00;;;17.80;99.90;;;;;;5135479;27;20217;-64
2023/09/01 05:28:35;;;;;;;31.10;29.97;;;17.80;99.90;;;;;;5151276;27;20201;-66
2023/09/01 05:31:01;;;;;;;30.23;29.17;;;17.80;99.90;;;;;;5153318;27;20587;-65
2023/09/01 05:33:28;;;;;;;31.07;29.97;;;17.80;99.90;;;;;;5153309;27;20208;-63
2023/09/01 05:35:55;;;;;;;26.10;25.10;;;17.80;99.90;;;;;;5150360;27;20193;-63
2023/09/01 05:38:22;;;;;;;32.70;31.57;;;17.80;99.90;;;;;;5150491;27;20197;-65
2023/09/01 05:40:57;;;;;;;26.73;25.80;;;17.80;99.90;;;;;;5141506;27;20732;-65
2023/09/01 05:43:24;;;;;;;28.43;27.43;;;17.80;99.90;;;;;;5144173;27;20197;-62
2023/09/01 05:45:52;;;;;;;21.97;21.23;;;17.80;99.90;;;;;;5137194;27;20225;-64
2023/09/01 05:48:18;;;;;;;27.93;26.93;;;17.80;99.90;;;;;;5134981;27;20201;-65
2023/09/01 05:50:45;;;;;;;26.47;25.57;;;17.80;99.90;;;;;;5132290;27;20207;-62
2023/09/01 05:53:12;;;;;;;28.50;27.53;;;17.90;99.90;;;;;;5131923;27;20208;-63
2023/09/01 05:55:39;;;;;;;24.83;23.93;;;17.90;99.90;;;;;;5133241;27;20668;-65
2023/09/01 05:58:07;;;;;;;22.10;21.30;;;17.90;99.90;;;;;;5133174;27;20205;-63
2023/09/01 06:00:34;;;;;;;22.03;21.27;;;17.90;99.90;;;;;;5133387;27;20576;-63
2023/09/01 06:03:01;;;;;;;24.93;24.07;;;18.00;99.90;;;;;;5133396;27;20221;-63
2023/09/01 06:05:28;;;;;;;24.40;23.57;;;18.00;99.90;;;;;;5134328;27;20291;-65
2023/09/01 06:07:54;;;;;;;29.47;28.43;;;18.10;99.90;;;;;;5134183;27;20205;-63
2023/09/01 06:10:21;;;;;;;25.47;24.57;;;18.20;99.90;;;;;;5133061;27;20211;-63
2023/09/01 06:12:48;;;;;;;27.33;26.40;;;18.10;99.90;;;;;;5133766;27;20268;-63
2023/09/01 06:15:17;;;;;;;24.33;23.50;;;18.10;99.90;;;;;;5132400;27;20258;-63
2023/09/01 06:17:43;;;;;;;33.83;32.63;;;18.10;99.90;;;;;;5130234;28;20231;-64
2023/09/01 06:20:11;;;;;;;22.13;21.37;;;18.10;99.90;;;;;;5131541;28;20305;-63
2023/09/01 06:22:38;;;;;;;32.47;31.37;;;18.20;99.90;;;;;;5132369;28;20231;-63
2023/09/01 06:25:06;;;;;;;28.87;27.87;;;18.20;99.90;;;;;;5131983;28;20241;-64
2023/09/01 06:27:37;;;;;;;35.40;34.15;;;18.20;99.90;;;;;;5131908;28;20223;-64
2023/09/01 06:30:05;;;;;;;23.73;22.93;;;18.20;99.90;;;;;;5131874;28;20185;-63
2023/09/01 06:32:33;;;;;;;31.80;30.70;;;18.20;99.90;;;;;;5132004;28;20571;-64
2023/09/01 06:35:00;;;;;;;32.03;30.93;;;18.20;99.90;;;;;;5132172;28;20212;-63
2023/09/01 06:37:27;;;;;;;35.05;33.85;;;18.20;99.90;;;;;;5132496;28;20571;-64
2023/09/01 06:39:54;;;;;;;20.33;19.63;;;18.20;99.90;;;;;;5132133;28;20308;-64
2023/09/01 06:42:21;;;;;;;18.57;17.87;;;18.20;99.90;;;;;;5131009;28;20225;-65
2023/09/01 06:44:47;;;;;;;27.33;26.33;;;18.20;99.90;;;;;;5132668;28;20211;-63
2023/09/01 06:47:14;;;;;;;30.30;29.20;;;18.20;99.90;;;;;;5132349;28;20224;-63
2023/09/01 06:49:43;;;;;;;26.98;26.02;;;18.20;99.90;;;;;;5133031;28;20292;-63
2023/09/01 06:52:09;;;;;;;25.90;24.98;;;18.10;99.90;;;;;;5137650;27;20236;-64
2023/09/01 06:54:38;;;;;;;24.30;23.47;;;18.30;99.90;;;;;;5137631;27;20673;-65
2023/09/01 06:57:05;;;;;;;24.77;23.87;;;18.30;99.90;;;;;;5139131;27;20201;-64
2023/09/01 06:59:32;;;;;;;28.43;27.43;;;18.40;99.90;;;;;;5138294;27;20292;-65
2023/09/01 07:01:59;;;;;;;25.40;24.53;;;18.30;99.90;;;;;;5136416;27;20221;-65
2023/09/01 07:04:26;;;;;;;23.40;22.57;;;18.30;99.90;;;;;;5143655;27;20557;-63
2023/09/01 07:06:54;;;;;;;28.90;27.87;;;18.30;99.90;;;;;;5161265;27;20217;-65
2023/09/01 07:09:21;;;;;;;22.30;21.50;;;18.40;99.90;;;;;;5136481;27;20201;-65
2023/09/01 07:11:48;;;;;;;18.63;18.02;;;18.40;99.90;;;;;;5135313;27;20237;-64
2023/09/01 07:14:14;;;;;;;20.83;20.13;;;18.40;99.90;;;;;;5135515;27;20201;-65
2023/09/01 07:16:41;;;;;;;27.37;26.40;;;18.40;99.90;;;;;;5135413;27;20685;-64
2023/09/01 07:19:08;;;;;;;24.00;23.20;;;18.40;99.90;;;;;;5137925;27;20204;-63
2023/09/01 07:21:35;;;;;;;21.70;20.97;;;18.40;99.90;;;;;;5140620;27;20231;-64
2023/09/01 07:24:03;;;;;;;28.10;27.10;;;18.50;99.90;;;;;;5139854;27;20640;-63
2023/09/01 07:26:30;;;;;;;24.43;23.53;;;18.50;99.90;;;;;;5140882;27;20711;-64
2023/09/01 07:28:57;;;;;;;21.80;21.00;;;18.60;99.90;;;;;;5139126;27;20668;-63
2023/09/01 07:31:24;;;;;;;19.60;18.90;;;18.60;99.90;;;;;;5136500;27;20221;-64
2023/09/01 07:33:51;;;;;;;22.03;21.23;;;18.70;99.90;;;;;;5135380;27;20201;-62
2023/09/01 07:36:19;;;;;;;18.53;17.93;;;18.70;99.90;;;;;;5135471;27;20567;-64
2023/09/01 07:38:46;;;;;;;20.40;19.70;;;18.70;99.90;;;;;;5135225;27;20719;-65
2023/09/01 07:41:14;;;;;;;17.50;16.90;;;18.80;99.90;;;;;;5135128;27;20225;-63
2023/09/01 07:43:41;;;;;;;19.97;19.17;;;18.80;99.90;;;;;;5135620;27;20205;-63
2023/09/01 07:46:08;;;;;;;23.40;22.50;;;18.80;99.90;;;;;;5138855;27;20577;-63
2023/09/01 07:48:35;;;;;;;19.02;18.40;;;18.90;99.90;;;;;;5140743;27;20213;-65
2023/09/01 07:51:02;;;;;;;18.40;17.80;;;19.00;99.90;;;;;;5137879;27;20209;-65
2023/09/01 07:53:29;;;;;;;18.57;17.87;;;19.10;99.90;;;;;;5136172;27;20205;-64
2023/09/01 07:55:56;;;;;;;23.83;23.03;;;19.10;99.90;;;;;;5135213;27;20308;-65
2023/09/01 07:58:24;;;;;;;18.75;18.13;;;19.20;99.90;;;;;;5134831;27;20213;-65
2023/09/01 08:00:53;;;;;;;17.73;17.13;;;19.20;99.90;;;;;;5134123;27;20281;-63
2023/09/01 08:03:19;;;;;;;17.63;17.03;;;19.30;99.90;;;;;;5131742;27;20200;-65
2023/09/01 08:05:46;;;;;;;20.13;19.43;;;19.50;99.90;;;;;;5134614;27;20218;-64
2023/09/01 08:08:13;;;;;;;20.37;19.57;;;19.50;99.90;;;;;;5134009;27;20214;-65
2023/09/01 08:10:40;;;;;;;17.23;16.63;;;19.50;99.90;;;;;;5133695;27;20299;-65
2023/09/01 08:13:08;;;;;;;21.23;20.42;;;19.80;99.90;;;;;;5127713;22;20712;-64
2023/09/01 08:15:36;;;;;;;16.17;15.57;;;19.80;99.90;;;;;;5092985;28;20206;-63
2023/09/01 08:18:04;;;;;;;21.33;20.43;;;19.90;99.90;;;;;;5093167;28;20283;-63
2023/09/01 08:20:31;;;;;;;14.20;13.70;;;20.10;99.90;;;;;;5090615;28;20670;-64
2023/09/01 08:22:58;;;;;;;15.33;14.73;;;20.50;99.90;;;;;;5092707;28;20252;-63
2023/09/01 08:25:25;;;;;;;18.80;18.10;;;20.50;99.90;;;;;;5092819;28;20199;-64
2023/09/01 08:27:52;;;;;;;14.90;14.40;;;20.60;99.90;;;;;;5092890;28;20229;-63
2023/09/01 08:30:19;;;;;;;14.15;13.65;;;20.70;99.90;;;;;;5092828;28;20561;-65
2023/09/01 08:32:47;;;;;;;14.00;13.50;;;20.80;99.90;;;;;;5092587;28;20225;-64
2023/09/01 08:35:14;;;;;;;18.67;17.87;;;21.10;99.90;;;;;;5095092;28;20212;-65
2023/09/01 08:37:41;;;;;;;16.30;15.70;;;21.40;99.90;;;;;;5093536;28;20285;-63
2023/09/01 08:40:10;;;;;;;14.90;14.40;;;21.60;99.90;;;;;;5093045;28;20591;-64
2023/09/01 08:42:41;;;;;;;14.07;13.57;;;21.80;99.90;;;;;;5092696;28;20222;-65
2023/09/01 08:45:10;;;;;;;19.70;18.98;;;21.90;99.90;;;;;;5092907;28;20202;-64
2023/09/01 08:47:43;;;;;;;14.07;13.57;;;21.90;99.90;;;;;;5092693;28;20705;-64
2023/09/01 08:50:11;;;;;;;14.63;14.13;;;21.80;99.90;;;;;;5093161;28;20209;-64
2023/09/01 08:52:39;;;;;;;17.30;16.70;;;21.90;99.90;;;;;;5092053;28;20214;-64
2023/09/01 08:55:06;;;;;;;14.40;13.90;;;21.70;99.90;;;;;;5092174;28;20666;-64
2023/09/01 08:57:33;;;;;;;14.57;14.07;;;21.60;99.90;;;;;;5092255;28;20210;-63
2023/09/01 09:00:00;;;;;;;14.70;14.17;;;21.60;99.90;;;;;;5092208;28;20199;-63
2023/09/01 09:02:27;;;;;;;13.63;13.13;;;21.60;99.90;;;;;;5089469;28;20566;-64
2023/09/01 09:04:55;;;;;;;14.70;14.20;;;21.70;99.90;;;;;;5092790;28;20205;-63
2023/09/01 09:07:23;;;;;;;14.35;13.77;;;21.70;99.90;;;;;;5092344;28;20246;-64
2023/09/01 09:09:51;;;;;;;14.20;13.70;;;21.80;99.90;;;;;;5092398;28;20205;-64
2023/09/01 09:12:18;;;;;;;17.05;16.45;;;21.80;99.90;;;;;;5091575;28;20219;-64
2023/09/01 09:14:51;;;;;;;17.77;17.13;;;21.90;99.90;;;;;;5091474;28;20199;-64
2023/09/01 09:17:18;;;;;;;19.98;19.27;;;22.00;99.90;;;;;;5091922;28;20190;-64
2023/09/01 09:19:53;;;;;;;20.25;19.55;;;22.20;99.90;;;;;;5091788;28;20195;-64
2023/09/01 09:22:20;;;;;;;15.75;15.25;;;22.30;99.90;;;;;;5091426;28;20221;-64
2023/09/01 09:24:48;;;;;;;18.70;18.00;;;22.50;99.90;;;;;;5089110;28;20601;-64
2023/09/01 09:27:16;;;;;;;18.93;18.23;;;22.60;99.90;;;;;;5094756;28;20240;-64
2023/09/01 09:29:43;;;;;;;21.15;20.45;;;22.60;99.90;;;;;;5098040;28;20195;-64
2023/09/01 09:32:20;;;;;;;24.97;24.03;;;22.70;99.90;;;;;;5098371;28;20215;-64
2023/09/01 09:35:08;;;;;;;22.07;21.27;;;22.70;99.90;;;;;;5090062;28;20194;-65
2023/09/01 09:37:36;;;;;;;22.10;21.33;;;22.80;99.90;;;;;;5087582;28;20236;-64
2023/09/01 09:40:15;;;;;;;21.07;20.30;;;22.90;99.90;;;;;;5091798;28;20205;-65
2023/09/01 09:42:43;;;;;;;20.50;19.80;;;22.90;99.90;;;;;;5091159;28;20297;-65
2023/09/01 09:45:26;;;;;;;23.20;22.40;;;22.90;99.90;;;;;;5095274;28;20211;-63
2023/09/01 09:47:54;;;;;;;20.73;20.03;;;23.00;99.90;;;;;;5092466;28;20229;-63
2023/09/01 09:50:22;;;;;;;22.03;21.23;;;23.10;99.90;;;;;;5089833;28;20573;-64
2023/09/01 09:52:50;;;;;;;23.15;22.35;;;23.40;99.90;;;;;;5085700;28;20215;-65
2023/09/01 09:55:25;;;;;;;19.67;18.97;;;23.60;99.90;;;;;;5096814;28;20316;-63
2023/09/01 09:57:55;;;;;;;14.50;14.00;;;23.80;99.90;;;;;;5090893;28;20293;-64
2023/09/01 10:00:22;;;;;;;14.23;13.73;;;23.90;99.90;;;;;;5098200;28;20210;-63
2023/09/01 10:02:54;;;;;;;21.80;20.90;;;24.10;99.90;;;;;;5094318;28;20229;-64
2023/09/01 10:05:23;;;;;;;14.27;13.77;;;24.20;99.90;;;;;;5094961;28;20240;-63
2023/09/01 10:07:51;;;;;;;14.10;13.60;;;24.40;99.90;;;;;;5090168;28;20210;-64
2023/09/01 10:10:20;;;;;;;13.15;12.73;;;24.60;99.90;;;;;;5090335;28;20202;-64
2023/09/01 10:12:47;;;;;;;15.32;14.80;;;24.60;99.90;;;;;;5090099;28;20329;-64
2023/09/01 10:15:15;;;;;;;13.32;12.93;;;24.50;99.90;;;;;;5090821;28;20209;-63
2023/09/01 10:17:43;;;;;;;13.82;13.32;;;24.50;99.90;;;;;;5090369;28;20202;-64
2023/09/01 10:20:12;;;;;;;12.60;12.20;;;24.60;99.90;;;;;;5090784;28;20191;-64
2023/09/01 10:22:39;;;;;;;13.60;13.10;;;24.60;99.90;;;;;;5090267;28;20226;-66
2023/09/01 10:25:10;;;;;;;13.80;13.30;;;24.60;99.90;;;;;;5090618;28;20207;-64
2023/09/01 10:28:00;;;;;;;12.77;12.38;;;24.70;99.90;;;;;;5094585;28;20234;-63
2023/09/01 10:30:27;;;;;;;18.10;17.42;;;24.90;99.90;;;;;;5095539;28;20218;-64
2023/09/01 10:33:10;;;;;;;13.48;12.98;;;24.70;99.90;;;;;;5094996;28;20222;-64
2023/09/01 10:35:39;;;;;;;12.75;12.35;;;24.50;99.90;;;;;;5094604;28;20198;-63
2023/09/01 10:38:17;;;;;;;12.68;12.27;;;24.40;99.90;;;;;;5092022;28;20284;-63
2023/09/01 10:40:45;;;;;;;13.32;12.82;;;24.50;99.90;;;;;;5094870;28;20206;-64
2023/09/01 10:43:13;;;;;;;12.18;11.77;;;24.80;99.90;;;;;;5094416;28;20228;-64
2023/09/01 10:45:40;;;;;;;12.75;12.35;;;25.10;99.90;;;;;;5094628;28;20228;-64
2023/09/01 10:48:11;;;;;;;14.02;13.52;;;25.50;99.90;;;;;;5094027;28;20222;-64
2023/09/01 10:50:42;;;;;;;14.30;13.80;;;25.80;99.90;;;;;;5094578;28;20301;-63
2023/09/01 10:53:31;;;;;;;14.52;14.02;;;26.00;99.90;;;;;;5093685;28;20237;-63
2023/09/01 10:56:08;;;;;;;15.77;15.27;;;26.30;99.90;;;;;;5094473;28;20697;-62
2023/09/01 10:58:45;;;;;;;16.33;15.73;;;26.50;99.90;;;;;;5094810;28;20289;-64
2023/09/01 11:01:35;;;;;;;16.48;15.88;;;26.60;99.90;;;;;;5094493;28;20206;-64
2023/09/01 11:04:33;;;;;;;18.05;17.45;;;26.60;99.90;;;;;;5094800;28;20206;-64
2023/09/01 11:07:04;;;;;;;16.08;15.48;;;26.30;99.90;;;;;;5096256;28;20297;-64
2023/09/01 11:09:51;;;;;;;18.85;18.23;;;26.20;99.90;;;;;;5097179;28;20203;-63
2023/09/01 11:12:18;;;;;;;19.20;18.55;;;26.00;99.90;;;;;;5098307;28;20253;-64
2023/09/01 11:14:57;;;;;;;16.92;16.33;;;26.00;99.90;;;;;;5094555;28;20205;-62
2023/09/01 11:17:49;;;;;;;20.77;20.08;;;25.90;99.90;;;;;;5100533;28;20237;-63
2023/09/01 11:20:20;;;;;;;21.40;20.70;;;25.70;99.90;;;;;;5096869;28;20293;-64
2023/09/01 11:22:48;;;;;;;22.98;22.17;;;25.50;99.90;;;;;;5093770;28;20262;-62
2023/09/01 11:25:16;;;;;;;21.33;20.63;;;25.40;99.90;;;;;;5093289;28;20210;-62
2023/09/01 11:27:45;;;;;;;18.63;18.02;;;25.30;99.90;;;;;;5094024;28;20226;-64
2023/09/01 11:30:16;;;;;;;19.10;18.48;;;25.20;99.90;;;;;;5093786;28;20297;-64
2023/09/01 11:32:43;;;;;;;20.85;20.15;;;25.10;99.90;;;;;;5093662;28;20244;-62
2023/09/01 11:35:21;;;;;;;15.98;15.45;;;25.00;99.90;;;;;;5094413;28;20210;-63
2023/09/01 11:37:48;;;;;;;17.85;17.25;;;25.00;99.90;;;;;;5093044;28;20230;-62
2023/09/01 11:40:15;;;;;;;21.85;21.08;;;24.90;99.90;;;;;;5094135;28;20685;-63
2023/09/01 11:42:44;;;;;;;20.02;19.33;;;24.80;99.90;;;;;;5093600;28;20287;-62
2023/09/01 11:45:13;;;;;;;20.75;20.05;;;24.90;99.90;;;;;;5093440;28;20368;-63
2023/09/01 11:47:40;;;;;;;20.73;20.02;;;25.00;99.90;;;;;;5092964;28;20225;-62
2023/09/01 11:50:14;;;;;;;20.10;19.40;;;25.00;99.90;;;;;;5095687;28;20219;-63
2023/09/01 11:52:54;;;;;;;23.60;22.80;;;25.30;99.90;;;;;;5094240;28;20237;-62
2023/09/01 11:55:35;;;;;;;25.55;24.65;;;25.60;99.90;;;;;;5094006;28;20206;-63
2023/09/01 11:58:02;;;;;;;30.45;29.35;;;26.00;99.90;;;;;;5092477;28;20562;-62
2023/09/01 12:00:32;;;;;;;27.77;26.77;;;26.30;99.90;;;;;;5093653;28;20245;-63
2023/09/01 12:03:00;;;;;;;24.00;23.17;;;26.40;99.90;;;;;;5093268;28;20222;-63
2023/09/01 12:05:32;;;;;;;29.98;28.95;;;26.50;99.90;;;;;;5093302;28;20207;-64
2023/09/01 12:08:01;;;;;;;34.85;33.65;;;26.40;99.90;;;;;;5093173;28;20234;-63
2023/09/01 12:10:28;;;;;;;34.47;33.28;;;26.70;99.90;;;;;;5094004;28;20761;-63
2023/09/01 12:13:08;;;;;;;35.92;34.67;;;27.00;99.90;;;;;;5094061;28;20233;-64
2023/09/01 12:15:58;;;;;;;42.22;40.72;;;27.20;99.90;;;;;;5094437;28;20290;-63
2023/09/01 12:18:34;;;;;;;46.50;44.83;;;27.40;99.90;;;;;;5093778;28;20203;-63
2023/09/01 12:21:01;;;;;;;29.20;28.20;;;27.50;99.90;;;;;;5093223;28;20198;-64
2023/09/01 12:23:29;;;;;;;28.92;27.92;;;27.50;99.90;;;;;;5097604;28;20228;-63
2023/09/01 12:25:57;;;;;;;32.20;31.10;;;27.40;99.90;;;;;;5097185;28;20206;-62
2023/09/01 12:28:26;;;;;;;36.45;35.15;;;27.30;99.90;;;;;;5097436;28;20221;-62
2023/09/01 12:30:55;;;;;;;35.60;34.33;;;27.30;99.90;;;;;;5100461;28;20203;-63
2023/09/01 12:33:22;;;;;;;33.95;32.70;;;27.00;99.90;;;;;;5094339;28;20997;-62
2023/09/01 12:35:50;;;;;;;33.78;32.58;;;26.70;99.90;;;;;;5093354;28;20206;-64